createdAt,value
2019-03-26T00:01:12.050Z,99.90
2019-03-26T00:03:39.287Z,99.90
2019-03-26T00:06:06.457Z,99.90
2019-03-26T00:08:33.773Z,99.90
2019-03-26T00:11:00.936Z,99.90
2019-03-26T00:13:28.175Z,99.90
2019-03-26T00:15:55.330Z,99.90
2019-03-26T00:18:22.662Z,99.90
2019-03-26T00:20:50.189Z,99.90
2019-03-26T00:23:17.316Z,99.90
2019-03-26T00:25:44.594Z,99.90
2019-03-26T00:28:11.750Z,99.90
2019-03-26T00:30:39.915Z,99.90
2019-03-26T00:33:07.204Z,99.90
2019-03-26T00:35:34.480Z,99.90
2019-03-26T00:38:01.688Z,99.90
2019-03-26T00:40:29.259Z,99.90
2019-03-26T00:42:56.486Z,99.90
2019-03-26T00:45:23.752Z,99.90
2019-03-26T00:47:50.916Z,99.90
2019-03-26T00:50:18.175Z,99.90
2019-03-26T00:52:45.524Z,99.90
2019-03-26T00:55:22.583Z,99.90
2019-03-26T00:57:42.339Z,99.90
2019-03-26T01:00:11.621Z,99.90
2019-03-26T01:02:38.811Z,99.90
2019-03-26T01:05:06.772Z,99.90
2019-03-26T01:07:33.989Z,99.90
2019-03-26T01:10:01.124Z,99.90
2019-03-26T01:12:31.094Z,99.90
2019-03-26T01:14:57.573Z,99.90
2019-03-26T01:17:24.980Z,99.90
2019-03-26T01:19:52.158Z,99.90
2019-03-26T01:22:19.536Z,99.90
2019-03-26T01:24:46.712Z,99.90
2019-03-26T01:27:14.061Z,99.90
2019-03-26T01:29:41.267Z,99.90
2019-03-26T01:32:08.480Z,99.90
2019-03-26T01:34:45.518Z,99.90
2019-03-26T01:37:04.825Z,99.90
2019-03-26T01:39:32.001Z,99.90
2019-03-26T01:41:59.415Z,99.90
2019-03-26T01:44:26.844Z,99.90
2019-03-26T01:46:54.016Z,99.90
2019-03-26T01:49:21.167Z,99.90
2019-03-26T01:51:48.340Z,99.90
2019-03-26T01:54:15.534Z,99.90
2019-03-26T01:56:42.706Z,99.90
2019-03-26T01:59:09.979Z,99.90
2019-03-26T02:01:37.128Z,99.90
2019-03-26T02:04:04.267Z,99.90
2019-03-26T02:06:31.452Z,99.90
2019-03-26T02:08:58.689Z,99.90
2019-03-26T02:11:25.869Z,99.90
2019-03-26T02:13:53.138Z,99.90
2019-03-26T02:16:20.268Z,99.90
2019-03-26T02:18:47.860Z,99.90
2019-03-26T02:21:15.037Z,99.90
2019-03-26T02:23:42.180Z,99.90
2019-03-26T02:26:09.344Z,99.90
2019-03-26T02:28:36.718Z,99.90
2019-03-26T02:31:04.004Z,99.90
2019-03-26T02:33:31.169Z,99.90
2019-03-26T02:35:58.369Z,99.90
2019-03-26T02:38:25.532Z,99.90
2019-03-26T02:40:52.810Z,99.90
2019-03-26T02:43:19.987Z,99.90
2019-03-26T02:45:47.171Z,99.90
2019-03-26T02:48:14.446Z,99.90
2019-03-26T02:50:41.737Z,99.90
2019-03-26T02:53:09.160Z,99.90
2019-03-26T02:55:36.990Z,99.90
2019-03-26T02:58:04.198Z,99.90
2019-03-26T03:00:31.554Z,99.90
2019-03-26T03:02:58.831Z,99.90
2019-03-26T03:05:35.096Z,99.90
2019-03-26T03:07:55.444Z,99.90
2019-03-26T03:10:22.781Z,99.90
2019-03-26T03:12:50.053Z,99.90
2019-03-26T03:15:17.338Z,99.90
2019-03-26T03:17:44.505Z,99.90
2019-03-26T03:20:12.115Z,99.90
2019-03-26T03:22:39.264Z,99.90
2019-03-26T03:25:06.946Z,99.90
2019-03-26T03:27:34.257Z,99.90
2019-03-26T03:30:01.441Z,99.90
2019-03-26T03:32:28.640Z,99.90
2019-03-26T03:34:55.795Z,99.90
2019-03-26T03:37:22.947Z,99.90
2019-03-26T03:39:50.305Z,99.90
2019-03-26T03:42:17.515Z,99.90
2019-03-26T03:44:45.001Z,99.90
2019-03-26T03:47:13.529Z,99.90
2019-03-26T03:49:40.841Z,99.90
2019-03-26T03:52:09.794Z,99.90
2019-03-26T03:54:40.760Z,99.90
2019-03-26T03:57:10.187Z,99.90
2019-03-26T03:59:38.755Z,99.90
2019-03-26T04:02:05.952Z,99.90
2019-03-26T04:04:33.280Z,99.90
2019-03-26T04:07:00.479Z,99.90
2019-03-26T04:09:27.666Z,99.90
2019-03-26T04:11:54.816Z,99.90
2019-03-26T04:14:22.033Z,99.90
2019-03-26T04:16:49.309Z,99.90
2019-03-26T04:19:16.520Z,99.90
2019-03-26T04:21:43.706Z,99.90
2019-03-26T04:24:11.175Z,99.90
2019-03-26T04:26:38.397Z,99.90
2019-03-26T04:29:05.884Z,99.90
2019-03-26T04:31:33.235Z,99.90
2019-03-26T04:34:00.845Z,99.90
2019-03-26T04:36:28.009Z,99.90
2019-03-26T04:38:55.215Z,99.90
2019-03-26T04:41:22.562Z,99.90
2019-03-26T04:43:49.709Z,99.90
2019-03-26T04:46:16.860Z,99.90
2019-03-26T04:48:44.075Z,99.90
2019-03-26T04:51:11.326Z,99.90
2019-03-26T04:53:38.497Z,99.90
2019-03-26T04:56:05.703Z,99.90
2019-03-26T04:58:32.865Z,99.90
2019-03-26T05:01:00.049Z,99.90
2019-03-26T05:03:27.540Z,99.90
2019-03-26T05:05:54.687Z,99.90
2019-03-26T05:08:21.939Z,99.90
2019-03-26T05:10:49.470Z,99.90
2019-03-26T05:13:16.793Z,99.90
2019-03-26T05:15:43.948Z,99.90
2019-03-26T05:18:11.153Z,99.90
2019-03-26T05:20:38.678Z,99.90
2019-03-26T05:23:05.908Z,99.90
2019-03-26T05:25:33.180Z,99.90
2019-03-26T05:28:00.470Z,99.90
2019-03-26T05:30:27.613Z,99.90
2019-03-26T05:32:54.861Z,99.90
2019-03-26T05:35:22.042Z,99.90
2019-03-26T05:37:49.257Z,99.90
2019-03-26T05:40:16.491Z,99.90
2019-03-26T05:42:44.700Z,99.90
2019-03-26T05:45:12.263Z,99.90
2019-03-26T05:47:39.747Z,99.90
2019-03-26T05:50:08.247Z,99.90
2019-03-26T05:52:36.226Z,99.90
2019-03-26T05:55:04.317Z,99.90
2019-03-26T05:57:31.599Z,99.90
2019-03-26T05:59:58.931Z,99.90
2019-03-26T06:02:26.213Z,99.90
2019-03-26T06:04:53.425Z,99.90
2019-03-26T06:07:20.600Z,99.90
2019-03-26T06:09:47.787Z,99.90
2019-03-26T06:12:14.976Z,99.90
2019-03-26T06:14:42.211Z,99.90
2019-03-26T06:17:09.388Z,99.90
2019-03-26T06:19:36.539Z,99.90
2019-03-26T06:22:03.741Z,99.90
2019-03-26T06:24:30.937Z,99.90
2019-03-26T06:26:58.196Z,99.90
2019-03-26T06:29:25.399Z,99.90
2019-03-26T06:31:53.728Z,99.90
2019-03-26T06:34:21.201Z,99.90
2019-03-26T06:36:48.444Z,99.90
2019-03-26T06:39:15.637Z,99.90
2019-03-26T06:41:42.793Z,99.90
2019-03-26T06:44:09.986Z,99.70
2019-03-26T06:46:37.275Z,97.10
2019-03-26T06:49:04.444Z,96.00
2019-03-26T06:51:31.591Z,96.70
2019-03-26T06:53:58.744Z,97.40
2019-03-26T06:56:25.932Z,97.70
2019-03-26T06:58:54.093Z,96.70
2019-03-26T07:01:21.388Z,96.80
2019-03-26T07:03:48.665Z,94.40
2019-03-26T07:06:16.243Z,95.00
2019-03-26T07:08:43.408Z,96.40
2019-03-26T07:11:10.668Z,94.20
2019-03-26T07:13:38.058Z,93.60
2019-03-26T07:16:05.281Z,92.20
2019-03-26T07:18:32.526Z,90.90
2019-03-26T07:20:59.988Z,91.00
2019-03-26T07:23:27.293Z,90.60
2019-03-26T07:25:54.587Z,90.00
2019-03-26T07:28:21.760Z,90.00
2019-03-26T07:30:49.093Z,90.50
2019-03-26T07:33:16.264Z,90.70
2019-03-26T07:35:43.631Z,90.00
2019-03-26T07:38:10.904Z,89.50
2019-03-26T07:40:38.066Z,89.50
2019-03-26T07:43:05.402Z,84.10
2019-03-26T07:45:33.216Z,78.50
2019-03-26T07:48:00.953Z,72.40
2019-03-26T07:50:28.365Z,71.40
2019-03-26T07:52:55.726Z,67.80
2019-03-26T07:55:23.011Z,64.10
2019-03-26T07:57:50.182Z,63.80
2019-03-26T08:00:21.761Z,66.10
2019-03-26T08:02:49.079Z,68.10
2019-03-26T08:05:29.031Z,69.80
2019-03-26T08:07:57.480Z,69.10
2019-03-26T08:10:14.392Z,70.10
2019-03-26T08:12:41.576Z,70.00
2019-03-26T08:15:09.696Z,67.60
2019-03-26T08:17:37.122Z,66.10
2019-03-26T08:20:05.206Z,67.40
2019-03-26T08:22:32.387Z,66.30
2019-03-26T08:25:00.004Z,63.90
2019-03-26T08:27:27.303Z,61.60
2019-03-26T08:29:54.601Z,58.50
2019-03-26T08:32:21.884Z,57.70
2019-03-26T08:34:50.770Z,58.30
2019-03-26T08:37:20.054Z,58.40
2019-03-26T08:39:47.361Z,59.10
2019-03-26T08:42:14.484Z,57.80
2019-03-26T08:44:41.752Z,57.30
2019-03-26T08:47:08.993Z,57.90
2019-03-26T08:49:36.183Z,59.50
2019-03-26T08:52:03.525Z,62.10
2019-03-26T08:54:40.859Z,63.40
2019-03-26T08:57:08.307Z,62.80
2019-03-26T08:59:35.481Z,61.90
2019-03-26T09:02:02.611Z,63.00
2019-03-26T09:04:29.866Z,65.30
2019-03-26T09:06:57.183Z,61.10
2019-03-26T09:09:26.385Z,60.00
2019-03-26T09:11:54.006Z,60.00
2019-03-26T09:14:21.197Z,61.00
2019-03-26T09:16:48.432Z,59.70
2019-03-26T09:19:15.725Z,59.30
2019-03-26T09:21:42.931Z,59.10
2019-03-26T09:24:10.064Z,60.00
2019-03-26T09:26:37.220Z,59.50
2019-03-26T09:29:04.600Z,61.30
2019-03-26T09:31:31.739Z,62.40
2019-03-26T09:33:58.978Z,63.80
2019-03-26T09:36:26.445Z,63.70
2019-03-26T09:38:53.830Z,62.80
2019-03-26T09:41:20.988Z,61.20
2019-03-26T09:43:48.172Z,59.10
2019-03-26T09:46:15.385Z,58.70
2019-03-26T09:48:42.758Z,57.30
2019-03-26T09:51:10.981Z,56.00
2019-03-26T09:53:38.333Z,54.50
2019-03-26T09:56:05.527Z,55.20
2019-03-26T09:58:32.697Z,56.70
2019-03-26T10:01:00.073Z,58.90
2019-03-26T10:03:27.270Z,60.90
2019-03-26T10:05:54.504Z,64.70
2019-03-26T10:08:21.920Z,79.40
2019-03-26T10:10:49.098Z,89.70
2019-03-26T10:13:16.301Z,92.30
2019-03-26T10:15:43.628Z,97.70
2019-03-26T10:18:10.784Z,94.50
2019-03-26T10:20:38.033Z,88.30
2019-03-26T10:23:05.188Z,85.80
2019-03-26T10:25:32.448Z,84.70
2019-03-26T10:27:59.698Z,81.80
2019-03-26T10:30:39.474Z,81.30
2019-03-26T10:33:07.445Z,82.00
2019-03-26T10:35:34.592Z,80.30
2019-03-26T10:38:02.863Z,78.90
2019-03-26T10:40:31.027Z,78.00
2019-03-26T10:42:58.461Z,77.20
2019-03-26T10:45:25.661Z,75.70
2019-03-26T10:47:52.795Z,76.20
2019-03-26T10:50:20.021Z,82.80
2019-03-26T10:52:47.228Z,85.20
2019-03-26T10:55:14.367Z,88.40
2019-03-26T10:57:41.871Z,89.70
2019-03-26T11:00:09.349Z,93.20
2019-03-26T11:02:36.566Z,95.50
2019-03-26T11:05:04.241Z,95.30
2019-03-26T11:07:31.660Z,95.50
2019-03-26T11:09:58.844Z,94.10
2019-03-26T11:12:25.972Z,93.20
2019-03-26T11:14:53.169Z,86.60
2019-03-26T11:17:20.346Z,84.30
2019-03-26T11:19:47.530Z,82.00
2019-03-26T11:22:14.723Z,76.80
2019-03-26T11:24:41.944Z,74.90
2019-03-26T11:27:09.157Z,75.20
2019-03-26T11:29:36.359Z,74.80
2019-03-26T11:32:03.649Z,75.00
2019-03-26T11:34:30.923Z,74.50
2019-03-26T11:36:58.163Z,73.30
2019-03-26T11:39:32.558Z,75.00
2019-03-26T11:41:54.476Z,72.20
2019-03-26T11:44:21.835Z,73.30
2019-03-26T11:46:49.109Z,73.90
2019-03-26T11:49:16.356Z,76.10
2019-03-26T11:51:43.816Z,76.60
2019-03-26T11:54:11.064Z,76.60
2019-03-26T11:56:38.312Z,75.90
2019-03-26T11:59:05.567Z,79.90
2019-03-26T12:01:32.813Z,82.40
2019-03-26T12:04:00.155Z,89.20
2019-03-26T12:06:27.322Z,87.10
2019-03-26T12:08:54.507Z,89.10
2019-03-26T12:11:21.849Z,92.90
2019-03-26T12:13:49.805Z,97.80
2019-03-26T12:16:17.021Z,99.90
2019-03-26T12:18:46.667Z,99.90
2019-03-26T12:21:13.888Z,99.90
2019-03-26T12:23:41.184Z,99.90
2019-03-26T12:26:20.425Z,99.90
2019-03-26T12:28:47.752Z,99.90
2019-03-26T12:31:15.030Z,99.90
2019-03-26T12:33:42.349Z,99.90
2019-03-26T12:36:09.491Z,99.90
2019-03-26T12:38:36.779Z,99.90
2019-03-26T12:41:04.084Z,99.90
2019-03-26T12:43:31.218Z,99.90
2019-03-26T12:46:01.710Z,99.90
2019-03-26T12:48:27.736Z,99.90
2019-03-26T12:50:54.997Z,99.90
2019-03-26T12:53:22.489Z,99.90
2019-03-26T12:55:49.860Z,99.90
2019-03-26T12:58:30.472Z,99.90
2019-03-26T13:00:46.110Z,99.90
2019-03-26T13:03:13.431Z,99.90
2019-03-26T13:05:40.679Z,99.90
2019-03-26T13:08:07.860Z,99.90
2019-03-26T13:10:35.091Z,99.90
2019-03-26T13:13:02.516Z,99.90
2019-03-26T13:15:29.933Z,99.90
2019-03-26T13:17:57.430Z,99.90
2019-03-26T13:20:24.681Z,99.90
2019-03-26T13:22:51.952Z,99.90
2019-03-26T13:25:19.844Z,99.90
2019-03-26T13:27:47.355Z,99.90
2019-03-26T13:30:15.612Z,99.90
2019-03-26T13:32:42.826Z,99.90
2019-03-26T13:35:10.881Z,99.90
2019-03-26T13:37:38.172Z,99.90
2019-03-26T13:40:05.693Z,99.90
2019-03-26T13:42:32.932Z,99.90
2019-03-26T13:45:00.354Z,99.80
2019-03-26T13:47:27.937Z,99.20
2019-03-26T13:49:55.234Z,96.40
2019-03-26T13:52:22.417Z,98.30
2019-03-26T13:54:49.580Z,96.00
2019-03-26T13:57:16.877Z,97.90
2019-03-26T13:59:44.108Z,96.30
2019-03-26T14:02:11.401Z,91.80
2019-03-26T14:04:39.895Z,91.30
2019-03-26T14:07:07.385Z,94.20
2019-03-26T14:09:34.782Z,99.90
2019-03-26T14:12:04.036Z,99.90
2019-03-26T14:14:31.188Z,99.90
2019-03-26T14:16:58.410Z,99.90
2019-03-26T14:19:26.441Z,99.90
2019-03-26T14:21:55.576Z,99.90
2019-03-26T14:24:29.646Z,92.50
2019-03-26T14:26:56.792Z,93.60
2019-03-26T14:29:24.822Z,95.80
2019-03-26T14:31:52.293Z,99.90
2019-03-26T14:34:19.471Z,99.90
2019-03-26T14:36:46.762Z,99.90
2019-03-26T14:39:13.991Z,99.90
2019-03-26T14:41:41.196Z,99.60
2019-03-26T14:44:08.461Z,98.90
2019-03-26T14:46:35.639Z,96.30
2019-03-26T14:49:04.929Z,96.10
2019-03-26T14:51:32.191Z,96.60
2019-03-26T14:53:59.473Z,99.00
2019-03-26T14:56:26.742Z,96.10
2019-03-26T14:58:54.009Z,94.50
2019-03-26T15:01:21.291Z,93.90
2019-03-26T15:03:48.485Z,90.40
2019-03-26T15:06:15.657Z,89.30
2019-03-26T15:08:42.886Z,88.10
2019-03-26T15:11:10.071Z,87.70
2019-03-26T15:13:37.281Z,86.00
2019-03-26T15:16:04.507Z,83.90
2019-03-26T15:18:31.733Z,81.40
2019-03-26T15:20:58.899Z,82.00
2019-03-26T15:23:26.059Z,82.60
2019-03-26T15:25:53.202Z,79.20
2019-03-26T15:28:20.505Z,74.80
2019-03-26T15:30:47.704Z,74.00
2019-03-26T15:33:14.881Z,73.70
2019-03-26T15:35:42.191Z,70.60
2019-03-26T15:38:09.335Z,65.60
2019-03-26T15:40:36.613Z,64.30
2019-03-26T15:43:03.886Z,63.00
2019-03-26T15:45:31.253Z,60.50
2019-03-26T15:47:58.421Z,57.30
2019-03-26T15:50:37.013Z,56.80
2019-03-26T15:53:04.359Z,57.00
2019-03-26T15:55:31.602Z,54.60
2019-03-26T15:58:00.178Z,54.90
2019-03-26T16:00:29.098Z,55.30
2019-03-26T16:02:56.269Z,56.50
2019-03-26T16:05:23.479Z,56.90
2019-03-26T16:07:50.833Z,57.00
2019-03-26T16:10:17.974Z,57.40
2019-03-26T16:12:45.490Z,57.10
2019-03-26T16:15:13.016Z,58.00
2019-03-26T16:17:40.472Z,59.90
2019-03-26T16:20:08.081Z,59.60
2019-03-26T16:22:36.547Z,58.30
2019-03-26T16:25:04.200Z,58.70
2019-03-26T16:27:31.411Z,57.30
2019-03-26T16:29:58.549Z,58.00
2019-03-26T16:32:25.804Z,58.80
2019-03-26T16:34:53.297Z,58.80
2019-03-26T16:37:20.483Z,59.20
2019-03-26T16:39:48.037Z,58.10
2019-03-26T16:42:15.293Z,58.60
2019-03-26T16:44:42.426Z,59.20
2019-03-26T16:47:09.569Z,59.30
2019-03-26T16:49:36.733Z,59.80
2019-03-26T16:52:04.022Z,60.40
2019-03-26T16:54:31.209Z,61.50
2019-03-26T16:56:58.892Z,63.50
2019-03-26T16:59:26.370Z,63.90
2019-03-26T17:01:53.629Z,63.50
2019-03-26T17:04:20.849Z,64.50
2019-03-26T17:06:48.065Z,66.00
2019-03-26T17:09:15.338Z,65.40
2019-03-26T17:11:42.521Z,65.60
2019-03-26T17:14:09.741Z,65.40
2019-03-26T17:16:36.959Z,69.60
2019-03-26T17:19:04.420Z,71.10
2019-03-26T17:21:31.719Z,73.10
2019-03-26T17:23:58.997Z,75.50
2019-03-26T17:26:26.805Z,76.80
2019-03-26T17:28:54.471Z,78.10
2019-03-26T17:31:21.716Z,78.30
2019-03-26T17:33:49.219Z,79.50
2019-03-26T17:36:16.485Z,79.40
2019-03-26T17:38:43.673Z,79.40
2019-03-26T17:41:10.878Z,80.50
2019-03-26T17:43:38.162Z,79.70
2019-03-26T17:46:05.337Z,80.10
2019-03-26T17:48:32.604Z,80.20
2019-03-26T17:50:59.865Z,80.50
2019-03-26T17:53:27.190Z,80.80
2019-03-26T17:55:54.484Z,80.90
2019-03-26T17:58:21.761Z,79.30
2019-03-26T18:00:49.123Z,80.00
2019-03-26T18:03:26.382Z,80.60
2019-03-26T18:05:45.488Z,79.80
2019-03-26T18:08:12.669Z,79.50
2019-03-26T18:10:39.832Z,79.60
2019-03-26T18:13:07.140Z,80.20
2019-03-26T18:15:34.658Z,81.50
2019-03-26T18:18:02.165Z,80.40
2019-03-26T18:20:32.849Z,80.50
2019-03-26T18:22:58.680Z,79.50
2019-03-26T18:25:25.917Z,78.80
2019-03-26T18:27:53.267Z,79.70
2019-03-26T18:30:20.767Z,79.10
2019-03-26T18:32:48.073Z,78.40
2019-03-26T18:35:15.192Z,77.90
2019-03-26T18:37:42.459Z,79.30
2019-03-26T18:40:09.830Z,78.00
2019-03-26T18:42:43.812Z,78.70
2019-03-26T18:45:06.537Z,78.80
2019-03-26T18:47:33.737Z,78.90
2019-03-26T18:50:00.972Z,79.60
2019-03-26T18:52:29.164Z,79.40
2019-03-26T18:54:56.407Z,78.00
2019-03-26T18:57:23.653Z,77.90
2019-03-26T18:59:50.840Z,77.40
2019-03-26T19:02:18.040Z,77.30
2019-03-26T19:04:45.221Z,77.30
2019-03-26T19:07:12.488Z,76.50
2019-03-26T19:09:39.761Z,76.10
2019-03-26T19:12:06.920Z,76.20
2019-03-26T19:14:34.142Z,75.80
2019-03-26T19:17:01.381Z,75.40
2019-03-26T19:19:28.515Z,75.40
2019-03-26T19:21:55.768Z,75.10
2019-03-26T19:24:23.289Z,76.00
2019-03-26T19:26:50.501Z,75.70
2019-03-26T19:29:17.782Z,76.20
2019-03-26T19:31:44.960Z,77.50
2019-03-26T19:34:12.135Z,77.90
2019-03-26T19:36:39.380Z,78.50
2019-03-26T19:39:06.959Z,79.30
2019-03-26T19:41:34.308Z,79.40
2019-03-26T19:44:01.593Z,80.30
2019-03-26T19:46:28.799Z,79.90
2019-03-26T19:48:56.664Z,80.50
2019-03-26T19:51:24.861Z,80.60
2019-03-26T19:53:52.079Z,80.80
2019-03-26T19:56:19.251Z,81.40
2019-03-26T19:58:46.396Z,81.00
2019-03-26T20:01:13.607Z,81.20
2019-03-26T20:03:40.919Z,80.90
2019-03-26T20:06:13.278Z,79.80
2019-03-26T20:08:37.244Z,80.30
2019-03-26T20:11:04.400Z,79.60
2019-03-26T20:13:31.685Z,79.00
2019-03-26T20:15:58.924Z,78.60
2019-03-26T20:18:26.172Z,79.70
2019-03-26T20:20:53.419Z,78.80
2019-03-26T20:23:20.707Z,79.30
2019-03-26T20:25:48.292Z,80.60
2019-03-26T20:28:15.484Z,79.50
2019-03-26T20:30:42.714Z,79.20
2019-03-26T20:33:09.921Z,79.40
2019-03-26T20:35:37.055Z,79.90
2019-03-26T20:38:04.307Z,79.90
2019-03-26T20:40:31.443Z,79.80
2019-03-26T20:42:59.201Z,79.80
2019-03-26T20:45:26.357Z,80.30
2019-03-26T20:47:53.583Z,81.10
2019-03-26T20:50:21.460Z,80.70
2019-03-26T20:52:48.594Z,80.30
2019-03-26T20:55:20.644Z,80.70
2019-03-26T20:57:48.109Z,80.30
2019-03-26T21:00:25.476Z,79.90
2019-03-26T21:02:52.686Z,80.30
2019-03-26T21:05:22.827Z,80.60
2019-03-26T21:07:50.007Z,80.80
2019-03-26T21:10:17.188Z,81.30
2019-03-26T21:12:44.364Z,81.90
2019-03-26T21:15:11.959Z,81.30
2019-03-26T21:17:39.370Z,81.50
2019-03-26T21:20:08.102Z,80.30
2019-03-26T21:22:35.575Z,81.10
2019-03-26T21:25:03.462Z,81.80
2019-03-26T21:27:30.579Z,81.40
2019-03-26T21:30:10.087Z,81.90
2019-03-26T21:32:26.857Z,82.90
2019-03-26T21:34:54.261Z,83.10
2019-03-26T21:37:21.619Z,83.50
2019-03-26T21:39:48.751Z,84.00
2019-03-26T21:42:16.232Z,84.20
2019-03-26T21:44:43.388Z,84.90
2019-03-26T21:47:10.532Z,85.00
2019-03-26T21:49:37.712Z,85.70
2019-03-26T21:52:04.999Z,86.20
2019-03-26T21:54:32.227Z,87.00
2019-03-26T21:56:59.660Z,87.40
2019-03-26T21:59:26.875Z,88.60
2019-03-26T22:01:54.060Z,89.60
2019-03-26T22:04:21.244Z,90.20
2019-03-26T22:06:48.987Z,90.20
2019-03-26T22:09:16.158Z,91.30
2019-03-26T22:11:49.796Z,91.40
2019-03-26T22:14:18.021Z,92.40
2019-03-26T22:16:41.646Z,92.20
2019-03-26T22:19:08.799Z,92.60
2019-03-26T22:21:36.063Z,93.30
2019-03-26T22:24:03.229Z,93.90
2019-03-26T22:26:30.384Z,94.60
2019-03-26T22:28:57.540Z,94.90
2019-03-26T22:31:25.210Z,95.70
2019-03-26T22:33:52.487Z,95.40
2019-03-26T22:36:21.016Z,95.50
2019-03-26T22:38:48.160Z,96.40
2019-03-26T22:41:15.359Z,97.10
2019-03-26T22:43:42.715Z,97.20
2019-03-26T22:46:09.904Z,97.30
2019-03-26T22:48:37.059Z,97.10
2019-03-26T22:51:04.212Z,97.30
2019-03-26T22:53:31.365Z,97.20
2019-03-26T22:55:58.646Z,98.00
2019-03-26T22:58:25.915Z,98.60
2019-03-26T23:00:53.761Z,99.90
2019-03-26T23:03:21.337Z,99.90
2019-03-26T23:05:48.867Z,99.90
2019-03-26T23:08:17.669Z,99.90
2019-03-26T23:10:45.040Z,99.90
2019-03-26T23:13:12.602Z,99.90
2019-03-26T23:15:39.869Z,99.90
2019-03-26T23:18:07.099Z,99.90
2019-03-26T23:20:34.521Z,99.90
2019-03-26T23:23:01.808Z,99.90
2019-03-26T23:25:29.023Z,99.90
2019-03-26T23:27:56.312Z,99.90
2019-03-26T23:30:23.802Z,99.90
2019-03-26T23:32:51.026Z,99.90
2019-03-26T23:35:18.317Z,99.90
2019-03-26T23:37:45.463Z,99.90
2019-03-26T23:40:13.673Z,99.90
2019-03-26T23:42:41.008Z,99.90
2019-03-26T23:45:09.744Z,99.90
2019-03-26T23:47:36.888Z,99.90
2019-03-26T23:50:05.969Z,99.90
2019-03-26T23:52:33.145Z,99.90
2019-03-26T23:55:00.345Z,99.90
2019-03-26T23:57:27.622Z,99.90
2019-03-26T23:59:54.785Z,99.90
